KCRW/CRW METAR and TAF weather

Enter ICAO airport designator
Station Type Date Time Source
KCRW METAR 2020/07/09 07:01 UTC NOAA

KCRW 090701Z 00000KT 10SM FEW001 23/21 A2992 RMK AO2 T02280211


Station Type Date Time Source
KCRW Decoded METAR 2020/07/09 07:01 UTC NOAA

YEAGER AIRPORT, WV, United States (KCRW) 38-22N 081-36W 309M
Jul 09, 2020 - 03:01 AM EDT / 2020.07.09 0701 UTC
Wind: Calm:0
Visibility: 10 mile(s):0
Sky conditions: mostly clear
Temperature: 73.0 F (22.8 C)
Dew Point: 70.0 F (21.1 C)
Relative Humidity: 90%
Pressure (altimeter): 29.92 in. Hg (1013 hPa)
ob: KCRW 090701Z 00000KT 10SM FEW001 23/21 A2992 RMK AO2 T02280211
cycle: 7

Station Type Date Time Source
KCRW TAF 2020/07/09 06:24 UTC NOAA

TAF KCRW 090523Z 0906/1006 00000KT P6SM SKC
FM090900 00000KT 4SM BR SKC
FM091200 00000KT P6SM FEW250
FM091500 VRB03KT P6SM FEW040
FM100100 00000KT P6SM SCT250

Example: see airport list